sensor_id;sensor_type;location;lat;lon;timestamp;temperature;humidity
17988;DHT22;9119;50.932;5.342;2022-09-21T00:01:31;11.60;99.90
17988;DHT22;9119;50.932;5.342;2022-09-21T00:04:00;11.60;99.90
17988;DHT22;9119;50.932;5.342;2022-09-21T00:06:33;11.50;99.90
17988;DHT22;9119;50.932;5.342;2022-09-21T00:09:03;11.50;99.90
17988;DHT22;9119;50.932;5.342;2022-09-21T00:11:35;11.50;99.90
17988;DHT22;9119;50.932;5.342;2022-09-21T00:14:04;11.50;99.90
17988;DHT22;9119;50.932;5.342;2022-09-21T00:16:32;11.50;99.90
17988;DHT22;9119;50.932;5.342;2022-09-21T00:19:05;11.40;99.90
17988;DHT22;9119;50.932;5.342;2022-09-21T00:21:39;11.40;99.90
17988;DHT22;9119;50.932;5.342;2022-09-21T00:24:06;11.40;99.90
17988;DHT22;9119;50.932;5.342;2022-09-21T00:26:40;11.40;99.90
17988;DHT22;9119;50.932;5.342;2022-09-21T00:29:09;11.50;99.90
17988;DHT22;9119;50.932;5.342;2022-09-21T00:31:35;11.40;99.90
17988;DHT22;9119;50.932;5.342;2022-09-21T00:34:01;11.30;99.90
17988;DHT22;9119;50.932;5.342;2022-09-21T00:36:28;11.40;99.90
17988;DHT22;9119;50.932;5.342;2022-09-21T00:38:58;11.40;99.90
17988;DHT22;9119;50.932;5.342;2022-09-21T00:41:27;11.40;99.90
17988;DHT22;9119;50.932;5.342;2022-09-21T00:46:40;11.20;99.90
17988;DHT22;9119;50.932;5.342;2022-09-21T00:49:29;11.30;99.90
17988;DHT22;9119;50.932;5.342;2022-09-21T00:51:58;11.30;99.90
17988;DHT22;9119;50.932;5.342;2022-09-21T00:54:32;11.20;99.90
17988;DHT22;9119;50.932;5.342;2022-09-21T00:57:06;11.10;99.90
17988;DHT22;9119;50.932;5.342;2022-09-21T00:59:45;11.10;99.90
17988;DHT22;9119;50.932;5.342;2022-09-21T01:02:15;11.10;99.90
17988;DHT22;9119;50.932;5.342;2022-09-21T01:04:43;11.00;99.90
17988;DHT22;9119;50.932;5.342;2022-09-21T01:07:14;11.00;99.90
17988;DHT22;9119;50.932;5.342;2022-09-21T01:09:42;11.00;99.90
17988;DHT22;9119;50.932;5.342;2022-09-21T01:15:15;10.70;99.90
17988;DHT22;9119;50.932;5.342;2022-09-21T01:18:08;11.00;99.90
17988;DHT22;9119;50.932;5.342;2022-09-21T01:20:48;11.00;99.90
17988;DHT22;9119;50.932;5.342;2022-09-21T01:29:05;11.00;99.90
17988;DHT22;9119;50.932;5.342;2022-09-21T01:34:44;10.90;99.90
17988;DHT22;9119;50.932;5.342;2022-09-21T01:37:16;10.90;99.90
17988;DHT22;9119;50.932;5.342;2022-09-21T01:39:46;10.90;99.90
17988;DHT22;9119;50.932;5.342;2022-09-21T01:42:13;10.80;99.90
17988;DHT22;9119;50.932;5.342;2022-09-21T01:44:41;10.80;99.90
17988;DHT22;9119;50.932;5.342;2022-09-21T01:47:10;10.80;99.90
17988;DHT22;9119;50.932;5.342;2022-09-21T01:49:49;10.70;99.90
17988;DHT22;9119;50.932;5.342;2022-09-21T01:52:25;10.70;99.90
17988;DHT22;9119;50.932;5.342;2022-09-21T01:54:58;10.60;99.90
17988;DHT22;9119;50.932;5.342;2022-09-21T01:57:33;10.60;99.90
17988;DHT22;9119;50.932;5.342;2022-09-21T02:00:03;10.60;99.90
17988;DHT22;9119;50.932;5.342;2022-09-21T02:02:38;10.60;99.90
17988;DHT22;9119;50.932;5.342;2022-09-21T02:05:05;10.60;99.90
17988;DHT22;9119;50.932;5.342;2022-09-21T02:07:33;10.60;99.90
17988;DHT22;9119;50.932;5.342;2022-09-21T02:10:00;10.50;99.90
17988;DHT22;9119;50.932;5.342;2022-09-21T02:12:27;10.50;99.90
17988;DHT22;9119;50.932;5.342;2022-09-21T02:14:54;10.30;99.90
17988;DHT22;9119;50.932;5.342;2022-09-21T02:17:42;10.40;99.90
17988;DHT22;9119;50.932;5.342;2022-09-21T02:20:26;10.30;99.90
17988;DHT22;9119;50.932;5.342;2022-09-21T02:23:22;10.30;99.90
17988;DHT22;9119;50.932;5.342;2022-09-21T02:25:56;10.20;99.90
17988;DHT22;9119;50.932;5.342;2022-09-21T02:33:58;10.20;99.90
17988;DHT22;9119;50.932;5.342;2022-09-21T02:36:41;10.20;99.90
17988;DHT22;9119;50.932;5.342;2022-09-21T02:42:22;10.20;99.90
17988;DHT22;9119;50.932;5.342;2022-09-21T02:45:04;10.30;99.90
17988;DHT22;9119;50.932;5.342;2022-09-21T02:47:56;10.00;99.90
17988;DHT22;9119;50.932;5.342;2022-09-21T02:50:32;9.90;99.90
17988;DHT22;9119;50.932;5.342;2022-09-21T02:53:00;10.00;99.90
17988;DHT22;9119;50.932;5.342;2022-09-21T02:55:28;10.10;99.90
17988;DHT22;9119;50.932;5.342;2022-09-21T02:57:54;9.90;99.90
17988;DHT22;9119;50.932;5.342;2022-09-21T03:00:20;9.90;99.90
17988;DHT22;9119;50.932;5.342;2022-09-21T03:02:46;10.10;99.90
17988;DHT22;9119;50.932;5.342;2022-09-21T03:05:13;10.00;99.90
17988;DHT22;9119;50.932;5.342;2022-09-21T03:07:39;9.70;99.90
17988;DHT22;9119;50.932;5.342;2022-09-21T03:10:05;9.70;99.90
17988;DHT22;9119;50.932;5.342;2022-09-21T03:12:32;9.60;99.90
17988;DHT22;9119;50.932;5.342;2022-09-21T03:14:58;9.60;99.90
17988;DHT22;9119;50.932;5.342;2022-09-21T03:17:24;9.60;99.90
17988;DHT22;9119;50.932;5.342;2022-09-21T03:19:51;9.60;99.90
17988;DHT22;9119;50.932;5.342;2022-09-21T03:22:22;9.60;99.90
17988;DHT22;9119;50.932;5.342;2022-09-21T03:24:49;9.60;99.90
17988;DHT22;9119;50.932;5.342;2022-09-21T03:27:17;9.60;99.90
17988;DHT22;9119;50.932;5.342;2022-09-21T03:29:43;9.70;99.90
17988;DHT22;9119;50.932;5.342;2022-09-21T03:32:09;9.60;99.90
17988;DHT22;9119;50.932;5.342;2022-09-21T03:34:35;9.60;99.90
17988;DHT22;9119;50.932;5.342;2022-09-21T03:37:02;9.60;99.90
17988;DHT22;9119;50.932;5.342;2022-09-21T03:39:28;9.50;99.90
17988;DHT22;9119;50.932;5.342;2022-09-21T03:41:54;9.50;99.90
17988;DHT22;9119;50.932;5.342;2022-09-21T03:44:25;9.60;99.90
17988;DHT22;9119;50.932;5.342;2022-09-21T03:46:51;9.80;99.90
17988;DHT22;9119;50.932;5.342;2022-09-21T03:49:18;9.80;99.90
17988;DHT22;9119;50.932;5.342;2022-09-21T03:51:44;9.60;99.90
17988;DHT22;9119;50.932;5.342;2022-09-21T03:54:10;9.70;99.90
17988;DHT22;9119;50.932;5.342;2022-09-21T03:56:35;9.40;99.90
17988;DHT22;9119;50.932;5.342;2022-09-21T03:59:01;9.40;99.90
17988;DHT22;9119;50.932;5.342;2022-09-21T04:01:27;9.30;99.90
17988;DHT22;9119;50.932;5.342;2022-09-21T04:03:53;9.50;99.90
17988;DHT22;9119;50.932;5.342;2022-09-21T04:06:19;9.30;99.90
17988;DHT22;9119;50.932;5.342;2022-09-21T04:08:44;9.20;99.90
17988;DHT22;9119;50.932;5.342;2022-09-21T04:11:15;9.10;99.90
17988;DHT22;9119;50.932;5.342;2022-09-21T04:13:42;9.10;99.90
17988;DHT22;9119;50.932;5.342;2022-09-21T04:16:11;9.20;99.90
17988;DHT22;9119;50.932;5.342;2022-09-21T04:18:37;9.20;99.90
17988;DHT22;9119;50.932;5.342;2022-09-21T04:21:04;9.30;99.90
17988;DHT22;9119;50.932;5.342;2022-09-21T04:23:30;9.30;99.90
17988;DHT22;9119;50.932;5.342;2022-09-21T04:25:56;9.30;99.90
17988;DHT22;9119;50.932;5.342;2022-09-21T04:28:22;9.30;99.90
17988;DHT22;9119;50.932;5.342;2022-09-21T04:30:52;9.30;99.90
17988;DHT22;9119;50.932;5.342;2022-09-21T04:33:18;9.20;99.90
17988;DHT22;9119;50.932;5.342;2022-09-21T04:35:44;9.20;99.90
17988;DHT22;9119;50.932;5.342;2022-09-21T04:38:10;9.50;99.90
17988;DHT22;9119;50.932;5.342;2022-09-21T04:40:38;9.60;99.90
17988;DHT22;9119;50.932;5.342;2022-09-21T04:43:03;9.60;99.90
17988;DHT22;9119;50.932;5.342;2022-09-21T04:45:29;9.30;99.90
17988;DHT22;9119;50.932;5.342;2022-09-21T04:47:55;9.40;99.90
17988;DHT22;9119;50.932;5.342;2022-09-21T04:50:21;9.70;99.90
17988;DHT22;9119;50.932;5.342;2022-09-21T04:52:46;9.70;99.90
17988;DHT22;9119;50.932;5.342;2022-09-21T04:55:12;9.50;99.90
17988;DHT22;9119;50.932;5.342;2022-09-21T04:57:38;9.50;99.90
17988;DHT22;9119;50.932;5.342;2022-09-21T05:00:04;9.50;99.90
17988;DHT22;9119;50.932;5.342;2022-09-21T05:02:30;9.50;99.90
17988;DHT22;9119;50.932;5.342;2022-09-21T05:04:56;9.60;99.90
17988;DHT22;9119;50.932;5.342;2022-09-21T05:07:21;9.50;99.90
17988;DHT22;9119;50.932;5.342;2022-09-21T05:09:47;9.70;99.90
17988;DHT22;9119;50.932;5.342;2022-09-21T05:12:29;9.70;99.90
17988;DHT22;9119;50.932;5.342;2022-09-21T05:14:55;9.50;99.90
17988;DHT22;9119;50.932;5.342;2022-09-21T05:17:20;9.40;99.90
17988;DHT22;9119;50.932;5.342;2022-09-21T05:19:48;9.40;99.90
17988;DHT22;9119;50.932;5.342;2022-09-21T05:22:14;9.30;99.90
17988;DHT22;9119;50.932;5.342;2022-09-21T05:24:39;9.30;99.90
17988;DHT22;9119;50.932;5.342;2022-09-21T05:27:05;9.10;99.90
17988;DHT22;9119;50.932;5.342;2022-09-21T05:29:31;9.00;99.90
17988;DHT22;9119;50.932;5.342;2022-09-21T05:40:07;9.00;99.90
17988;DHT22;9119;50.932;5.342;2022-09-21T05:42:34;8.90;99.90
17988;DHT22;9119;50.932;5.342;2022-09-21T05:45:00;9.00;99.90
17988;DHT22;9119;50.932;5.342;2022-09-21T05:47:39;8.90;99.90
17988;DHT22;9119;50.932;5.342;2022-09-21T06:00:58;9.00;99.90
17988;DHT22;9119;50.932;5.342;2022-09-21T06:03:29;9.00;99.90
17988;DHT22;9119;50.932;5.342;2022-09-21T06:05:56;9.00;99.90
17988;DHT22;9119;50.932;5.342;2022-09-21T06:08:23;9.00;99.90
17988;DHT22;9119;50.932;5.342;2022-09-21T06:10:53;9.10;99.90
17988;DHT22;9119;50.932;5.342;2022-09-21T06:13:19;9.20;99.90
17988;DHT22;9119;50.932;5.342;2022-09-21T06:15:45;9.30;99.90
17988;DHT22;9119;50.932;5.342;2022-09-21T06:18:11;9.20;99.90
17988;DHT22;9119;50.932;5.342;2022-09-21T06:20:37;9.20;99.90
17988;DHT22;9119;50.932;5.342;2022-09-21T06:23:09;9.30;99.90
17988;DHT22;9119;50.932;5.342;2022-09-21T06:25:35;9.30;99.90
17988;DHT22;9119;50.932;5.342;2022-09-21T06:28:11;9.30;99.90
17988;DHT22;9119;50.932;5.342;2022-09-21T06:30:38;9.60;99.90
17988;DHT22;9119;50.932;5.342;2022-09-21T06:33:06;9.40;99.90
17988;DHT22;9119;50.932;5.342;2022-09-21T06:35:33;9.40;99.90
17988;DHT22;9119;50.932;5.342;2022-09-21T06:38:00;9.40;99.90
17988;DHT22;9119;50.932;5.342;2022-09-21T06:40:27;9.50;99.90
17988;DHT22;9119;50.932;5.342;2022-09-21T06:42:58;9.50;99.90
17988;DHT22;9119;50.932;5.342;2022-09-21T06:45:25;9.50;99.90
17988;DHT22;9119;50.932;5.342;2022-09-21T06:47:51;9.70;99.90
17988;DHT22;9119;50.932;5.342;2022-09-21T06:50:16;9.50;99.90
17988;DHT22;9119;50.932;5.342;2022-09-21T06:52:42;9.50;99.90
17988;DHT22;9119;50.932;5.342;2022-09-21T06:55:08;9.60;99.90
17988;DHT22;9119;50.932;5.342;2022-09-21T06:57:35;9.70;99.90
17988;DHT22;9119;50.932;5.342;2022-09-21T07:00:04;9.70;99.90
17988;DHT22;9119;50.932;5.342;2022-09-21T07:02:30;9.80;99.90
17988;DHT22;9119;50.932;5.342;2022-09-21T07:04:55;9.80;99.90
17988;DHT22;9119;50.932;5.342;2022-09-21T07:07:22;9.90;99.90
17988;DHT22;9119;50.932;5.342;2022-09-21T07:09:48;10.10;99.90
17988;DHT22;9119;50.932;5.342;2022-09-21T07:12:14;9.90;99.90
17988;DHT22;9119;50.932;5.342;2022-09-21T07:14:40;10.20;99.90
17988;DHT22;9119;50.932;5.342;2022-09-21T07:17:07;10.30;99.90
17988;DHT22;9119;50.932;5.342;2022-09-21T07:19:33;9.90;99.90
17988;DHT22;9119;50.932;5.342;2022-09-21T07:21:58;10.20;99.90
17988;DHT22;9119;50.932;5.342;2022-09-21T07:24:24;10.00;99.90
17988;DHT22;9119;50.932;5.342;2022-09-21T07:26:49;10.30;99.90
17988;DHT22;9119;50.932;5.342;2022-09-21T07:29:15;10.30;99.90
17988;DHT22;9119;50.932;5.342;2022-09-21T07:31:44;10.40;99.90
17988;DHT22;9119;50.932;5.342;2022-09-21T07:34:09;10.50;99.90
17988;DHT22;9119;50.932;5.342;2022-09-21T07:36:35;10.60;99.90
17988;DHT22;9119;50.932;5.342;2022-09-21T07:39:02;10.80;99.90
17988;DHT22;9119;50.932;5.342;2022-09-21T07:41:28;10.90;99.90
17988;DHT22;9119;50.932;5.342;2022-09-21T07:43:54;11.10;99.90
17988;DHT22;9119;50.932;5.342;2022-09-21T07:46:19;11.20;99.90
17988;DHT22;9119;50.932;5.342;2022-09-21T07:48:45;11.20;99.90
17988;DHT22;9119;50.932;5.342;2022-09-21T07:51:12;11.40;99.90
17988;DHT22;9119;50.932;5.342;2022-09-21T07:53:41;11.30;99.90
17988;DHT22;9119;50.932;5.342;2022-09-21T07:56:12;11.50;99.90
17988;DHT22;9119;50.932;5.342;2022-09-21T07:58:38;11.50;99.90
17988;DHT22;9119;50.932;5.342;2022-09-21T08:01:23;11.70;99.90
17988;DHT22;9119;50.932;5.342;2022-09-21T08:03:51;11.80;99.90
17988;DHT22;9119;50.932;5.342;2022-09-21T08:06:17;11.80;99.90
17988;DHT22;9119;50.932;5.342;2022-09-21T08:08:43;11.90;99.90
17988;DHT22;9119;50.932;5.342;2022-09-21T08:11:13;12.10;99.90
17988;DHT22;9119;50.932;5.342;2022-09-21T08:13:39;12.20;99.90
17988;DHT22;9119;50.932;5.342;2022-09-21T08:16:05;12.60;99.90
17988;DHT22;9119;50.932;5.342;2022-09-21T08:18:30;12.60;99.90
17988;DHT22;9119;50.932;5.342;2022-09-21T08:20:58;12.80;99.90
17988;DHT22;9119;50.932;5.342;2022-09-21T08:23:24;13.30;99.90
17988;DHT22;9119;50.932;5.342;2022-09-21T08:25:57;13.20;99.90
17988;DHT22;9119;50.932;5.342;2022-09-21T08:28:23;13.50;99.90
17988;DHT22;9119;50.932;5.342;2022-09-21T08:30:49;14.00;99.90
17988;DHT22;9119;50.932;5.342;2022-09-21T08:33:14;14.40;99.90
17988;DHT22;9119;50.932;5.342;2022-09-21T08:35:40;14.70;99.90
17988;DHT22;9119;50.932;5.342;2022-09-21T08:38:06;14.90;99.90
17988;DHT22;9119;50.932;5.342;2022-09-21T08:40:32;15.20;99.90
17988;DHT22;9119;50.932;5.342;2022-09-21T08:43:02;15.10;99.90
17988;DHT22;9119;50.932;5.342;2022-09-21T08:45:33;15.20;99.90
17988;DHT22;9119;50.932;5.342;2022-09-21T08:48:02;15.10;99.90
17988;DHT22;9119;50.932;5.342;2022-09-21T08:50:40;14.90;99.90
17988;DHT22;9119;50.932;5.342;2022-09-21T08:53:12;14.80;99.90
17988;DHT22;9119;50.932;5.342;2022-09-21T08:55:40;14.80;99.90
17988;DHT22;9119;50.932;5.342;2022-09-21T08:58:25;15.20;99.90
17988;DHT22;9119;50.932;5.342;2022-09-21T09:12:08;17.70;99.90
17988;DHT22;9119;50.932;5.342;2022-09-21T09:17:35;18.40;99.90
17988;DHT22;9119;50.932;5.342;2022-09-21T09:25:41;19.30;99.90
17988;DHT22;9119;50.932;5.342;2022-09-21T09:28:24;19.80;99.90
17988;DHT22;9119;50.932;5.342;2022-09-21T09:30:59;20.30;99.90
17988;DHT22;9119;50.932;5.342;2022-09-21T09:33:46;20.70;99.90
17988;DHT22;9119;50.932;5.342;2022-09-21T09:36:14;20.80;99.90
17988;DHT22;9119;50.932;5.342;2022-09-21T09:39:10;21.30;99.90
17988;DHT22;9119;50.932;5.342;2022-09-21T09:52:47;22.10;99.90
17988;DHT22;9119;50.932;5.342;2022-09-21T09:55:21;22.40;99.90
17988;DHT22;9119;50.932;5.342;2022-09-21T09:57:48;22.30;99.90
17988;DHT22;9119;50.932;5.342;2022-09-21T10:00:25;21.90;99.90
17988;DHT22;9119;50.932;5.342;2022-09-21T10:02:57;21.20;99.90
17988;DHT22;9119;50.932;5.342;2022-09-21T10:05:36;21.60;99.90
17988;DHT22;9119;50.932;5.342;2022-09-21T10:10:54;21.50;99.90
17988;DHT22;9119;50.932;5.342;2022-09-21T10:13:34;21.70;99.90
17988;DHT22;9119;50.932;5.342;2022-09-21T10:16:05;19.80;99.90
17988;DHT22;9119;50.932;5.342;2022-09-21T10:24:00;17.20;99.90
17988;DHT22;9119;50.932;5.342;2022-09-21T10:26:43;17.30;99.90
17988;DHT22;9119;50.932;5.342;2022-09-21T10:29:18;17.30;99.90
17988;DHT22;9119;50.932;5.342;2022-09-21T10:34:38;17.10;99.90
17988;DHT22;9119;50.932;5.342;2022-09-21T10:37:26;17.00;99.90
17988;DHT22;9119;50.932;5.342;2022-09-21T10:39:53;16.70;99.90
17988;DHT22;9119;50.932;5.342;2022-09-21T10:42:19;16.70;99.90
17988;DHT22;9119;50.932;5.342;2022-09-21T10:44:46;16.70;99.90
17988;DHT22;9119;50.932;5.342;2022-09-21T10:50:02;17.00;99.90
17988;DHT22;9119;50.932;5.342;2022-09-21T10:52:38;17.30;99.90
17988;DHT22;9119;50.932;5.342;2022-09-21T10:55:06;17.50;99.90
17988;DHT22;9119;50.932;5.342;2022-09-21T10:57:40;17.60;99.90
17988;DHT22;9119;50.932;5.342;2022-09-21T11:03:23;17.50;99.90
17988;DHT22;9119;50.932;5.342;2022-09-21T11:05:49;17.30;99.90
17988;DHT22;9119;50.932;5.342;2022-09-21T11:08:42;17.20;99.90
17988;DHT22;9119;50.932;5.342;2022-09-21T11:13:57;17.20;99.90
17988;DHT22;9119;50.932;5.342;2022-09-21T11:16:30;17.20;99.90
17988;DHT22;9119;50.932;5.342;2022-09-21T11:18:59;17.10;99.90
17988;DHT22;9119;50.932;5.342;2022-09-21T11:27:01;17.10;99.90
17988;DHT22;9119;50.932;5.342;2022-09-21T11:29:43;16.80;99.90
17988;DHT22;9119;50.932;5.342;2022-09-21T11:40:58;16.40;99.90
17988;DHT22;9119;50.932;5.342;2022-09-21T11:51:51;16.30;99.90
17988;DHT22;9119;50.932;5.342;2022-09-21T11:57:23;16.60;99.90
17988;DHT22;9119;50.932;5.342;2022-09-21T12:00:21;16.80;99.90
17988;DHT22;9119;50.932;5.342;2022-09-21T12:11:37;17.10;99.90
17988;DHT22;9119;50.932;5.342;2022-09-21T12:14:16;17.10;99.90
17988;DHT22;9119;50.932;5.342;2022-09-21T12:17:23;17.10;99.90
17988;DHT22;9119;50.932;5.342;2022-09-21T12:20:25;17.20;99.90
17988;DHT22;9119;50.932;5.342;2022-09-21T12:23:00;17.20;99.90
17988;DHT22;9119;50.932;5.342;2022-09-21T12:25:48;17.30;99.90
17988;DHT22;9119;50.932;5.342;2022-09-21T12:31:14;17.40;99.90
17988;DHT22;9119;50.932;5.342;2022-09-21T12:33:50;17.50;99.90
17988;DHT22;9119;50.932;5.342;2022-09-21T12:36:32;17.60;99.90
17988;DHT22;9119;50.932;5.342;2022-09-21T12:39:12;17.90;99.90
17988;DHT22;9119;50.932;5.342;2022-09-21T12:41:55;17.70;99.90
17988;DHT22;9119;50.932;5.342;2022-09-21T12:44:41;17.80;99.90
17988;DHT22;9119;50.932;5.342;2022-09-21T12:48:16;18.00;99.90
17988;DHT22;9119;50.932;5.342;2022-09-21T12:53:22;18.20;99.90
17988;DHT22;9119;50.932;5.342;2022-09-21T12:56:42;18.10;99.90
17988;DHT22;9119;50.932;5.342;2022-09-21T13:02:28;17.50;99.90
17988;DHT22;9119;50.932;5.342;2022-09-21T13:05:06;17.70;99.90
17988;DHT22;9119;50.932;5.342;2022-09-21T13:10:54;17.90;99.90
17988;DHT22;9119;50.932;5.342;2022-09-21T13:13:27;17.90;99.90
17988;DHT22;9119;50.932;5.342;2022-09-21T13:15:54;17.80;99.90
17988;DHT22;9119;50.932;5.342;2022-09-21T13:18:39;17.70;99.90
17988;DHT22;9119;50.932;5.342;2022-09-21T13:21:19;17.40;99.90
17988;DHT22;9119;50.932;5.342;2022-09-21T13:24:04;17.40;99.90
17988;DHT22;9119;50.932;5.342;2022-09-21T13:26:42;17.60;99.90
17988;DHT22;9119;50.932;5.342;2022-09-21T13:31:59;17.90;99.90
17988;DHT22;9119;50.932;5.342;2022-09-21T13:34:38;17.80;99.90
17988;DHT22;9119;50.932;5.342;2022-09-21T13:47:45;17.10;99.90
17988;DHT22;9119;50.932;5.342;2022-09-21T13:53:40;17.10;99.90
17988;DHT22;9119;50.932;5.342;2022-09-21T13:55:53;17.10;99.90
17988;DHT22;9119;50.932;5.342;2022-09-21T13:58:29;17.10;99.90
17988;DHT22;9119;50.932;5.342;2022-09-21T14:03:45;17.00;99.90
17988;DHT22;9119;50.932;5.342;2022-09-21T14:06:19;16.90;99.90
17988;DHT22;9119;50.932;5.342;2022-09-21T14:09:07;16.80;99.90
17988;DHT22;9119;50.932;5.342;2022-09-21T14:11:43;16.70;99.90
17988;DHT22;9119;50.932;5.342;2022-09-21T14:14:30;16.80;99.90
17988;DHT22;9119;50.932;5.342;2022-09-21T14:17:00;16.80;99.90
17988;DHT22;9119;50.932;5.342;2022-09-21T14:24:44;17.30;99.90
17988;DHT22;9119;50.932;5.342;2022-09-21T14:27:15;17.30;99.90
17988;DHT22;9119;50.932;5.342;2022-09-21T14:29:59;17.50;99.90
17988;DHT22;9119;50.932;5.342;2022-09-21T14:32:32;17.60;99.90
17988;DHT22;9119;50.932;5.342;2022-09-21T14:35:05;17.60;99.90
17988;DHT22;9119;50.932;5.342;2022-09-21T14:37:43;17.70;99.90
17988;DHT22;9119;50.932;5.342;2022-09-21T14:40:35;17.80;99.90
17988;DHT22;9119;50.932;5.342;2022-09-21T14:43:11;17.80;99.90
17988;DHT22;9119;50.932;5.342;2022-09-21T15:02:26;17.40;99.90
17988;DHT22;9119;50.932;5.342;2022-09-21T15:18:49;17.10;99.90
17988;DHT22;9119;50.932;5.342;2022-09-21T15:21:26;17.00;99.90
17988;DHT22;9119;50.932;5.342;2022-09-21T15:23:54;16.90;99.90
17988;DHT22;9119;50.932;5.342;2022-09-21T15:26:21;16.90;99.90
17988;DHT22;9119;50.932;5.342;2022-09-21T15:28:53;16.90;99.90
17988;DHT22;9119;50.932;5.342;2022-09-21T15:31:18;16.90;99.90
17988;DHT22;9119;50.932;5.342;2022-09-21T15:33:45;16.90;99.90
17988;DHT22;9119;50.932;5.342;2022-09-21T15:36:35;16.90;99.90
17988;DHT22;9119;50.932;5.342;2022-09-21T15:39:02;16.90;99.90
17988;DHT22;9119;50.932;5.342;2022-09-21T15:41:43;16.90;99.90
17988;DHT22;9119;50.932;5.342;2022-09-21T15:44:15;16.80;99.90
17988;DHT22;9119;50.932;5.342;2022-09-21T15:46:44;16.90;99.90
17988;DHT22;9119;50.932;5.342;2022-09-21T15:49:16;16.80;99.90
17988;DHT22;9119;50.932;5.342;2022-09-21T15:51:51;16.70;99.90
17988;DHT22;9119;50.932;5.342;2022-09-21T15:54:31;16.70;99.90
17988;DHT22;9119;50.932;5.342;2022-09-21T15:57:04;16.70;99.90
17988;DHT22;9119;50.932;5.342;2022-09-21T15:59:31;16.60;99.90
17988;DHT22;9119;50.932;5.342;2022-09-21T16:02:00;16.60;99.90
17988;DHT22;9119;50.932;5.342;2022-09-21T16:04:35;16.70;99.90
17988;DHT22;9119;50.932;5.342;2022-09-21T16:07:24;16.70;99.90
17988;DHT22;9119;50.932;5.342;2022-09-21T16:09:50;16.70;99.90
17988;DHT22;9119;50.932;5.342;2022-09-21T16:12:40;16.60;99.90
17988;DHT22;9119;50.932;5.342;2022-09-21T16:15:24;16.60;99.90
17988;DHT22;9119;50.932;5.342;2022-09-21T16:20:20;16.60;99.90
17988;DHT22;9119;50.932;5.342;2022-09-21T16:22:52;16.70;99.90
17988;DHT22;9119;50.932;5.342;2022-09-21T16:27:59;16.70;99.90
17988;DHT22;9119;50.932;5.342;2022-09-21T16:33:37;16.80;99.90
17988;DHT22;9119;50.932;5.342;2022-09-21T16:36:50;16.80;99.90
17988;DHT22;9119;50.932;5.342;2022-09-21T16:38:53;16.80;99.90
17988;DHT22;9119;50.932;5.342;2022-09-21T16:41:20;16.80;99.90
17988;DHT22;9119;50.932;5.342;2022-09-21T16:43:47;16.80;99.90
17988;DHT22;9119;50.932;5.342;2022-09-21T16:46:15;16.80;99.90
17988;DHT22;9119;50.932;5.342;2022-09-21T16:48:42;16.80;99.90
17988;DHT22;9119;50.932;5.342;2022-09-21T16:51:13;16.70;99.90
17988;DHT22;9119;50.932;5.342;2022-09-21T16:53:39;16.70;99.90
17988;DHT22;9119;50.932;5.342;2022-09-21T16:56:11;16.70;99.90
17988;DHT22;9119;50.932;5.342;2022-09-21T16:58:38;16.70;99.90
17988;DHT22;9119;50.932;5.342;2022-09-21T17:01:07;16.70;99.90
17988;DHT22;9119;50.932;5.342;2022-09-21T17:03:34;16.60;99.90
17988;DHT22;9119;50.932;5.342;2022-09-21T17:05:59;16.70;99.90
17988;DHT22;9119;50.932;5.342;2022-09-21T17:08:25;16.60;99.90
17988;DHT22;9119;50.932;5.342;2022-09-21T17:10:52;16.50;99.90
17988;DHT22;9119;50.932;5.342;2022-09-21T17:13:19;16.70;99.90
17988;DHT22;9119;50.932;5.342;2022-09-21T17:15:46;16.40;99.90
17988;DHT22;9119;50.932;5.342;2022-09-21T17:18:12;16.40;99.90
17988;DHT22;9119;50.932;5.342;2022-09-21T17:20:41;16.30;99.90
17988;DHT22;9119;50.932;5.342;2022-09-21T17:23:07;16.30;99.90
17988;DHT22;9119;50.932;5.342;2022-09-21T17:25:34;16.40;99.90
17988;DHT22;9119;50.932;5.342;2022-09-21T17:28:02;16.30;99.90
17988;DHT22;9119;50.932;5.342;2022-09-21T17:30:28;16.30;99.90
17988;DHT22;9119;50.932;5.342;2022-09-21T17:32:54;16.20;99.90
17988;DHT22;9119;50.932;5.342;2022-09-21T17:35:38;16.10;99.90
17988;DHT22;9119;50.932;5.342;2022-09-21T17:38:05;16.10;99.90
17988;DHT22;9119;50.932;5.342;2022-09-21T17:40:32;16.10;99.90
17988;DHT22;9119;50.932;5.342;2022-09-21T17:48:38;15.90;99.90
17988;DHT22;9119;50.932;5.342;2022-09-21T17:51:06;15.90;99.90
17988;DHT22;9119;50.932;5.342;2022-09-21T17:53:33;15.80;99.90
17988;DHT22;9119;50.932;5.342;2022-09-21T17:56:30;15.80;99.90
17988;DHT22;9119;50.932;5.342;2022-09-21T17:59:00;15.80;99.90
17988;DHT22;9119;50.932;5.342;2022-09-21T18:01:35;15.70;99.90
17988;DHT22;9119;50.932;5.342;2022-09-21T18:04:03;15.70;99.90
17988;DHT22;9119;50.932;5.342;2022-09-21T18:06:29;15.70;99.90
17988;DHT22;9119;50.932;5.342;2022-09-21T18:08:59;15.70;99.90
17988;DHT22;9119;50.932;5.342;2022-09-21T18:14:24;15.60;99.90
17988;DHT22;9119;50.932;5.342;2022-09-21T18:17:11;15.50;99.90
17988;DHT22;9119;50.932;5.342;2022-09-21T18:22:57;15.40;99.90
17988;DHT22;9119;50.932;5.342;2022-09-21T18:25:35;15.40;99.90
17988;DHT22;9119;50.932;5.342;2022-09-21T18:28:24;15.40;99.90
17988;DHT22;9119;50.932;5.342;2022-09-21T18:34:00;15.30;99.90
17988;DHT22;9119;50.932;5.342;2022-09-21T18:36:45;15.30;99.90
17988;DHT22;9119;50.932;5.342;2022-09-21T18:44:49;15.10;99.90
17988;DHT22;9119;50.932;5.342;2022-09-21T18:47:23;15.10;99.90
17988;DHT22;9119;50.932;5.342;2022-09-21T18:50:28;15.10;99.90
17988;DHT22;9119;50.932;5.342;2022-09-21T18:53:04;15.00;99.90
17988;DHT22;9119;50.932;5.342;2022-09-21T18:55:35;14.90;99.90
17988;DHT22;9119;50.932;5.342;2022-09-21T18:58:02;14.80;99.90
17988;DHT22;9119;50.932;5.342;2022-09-21T19:00:29;14.80;99.90
17988;DHT22;9119;50.932;5.342;2022-09-21T19:03:06;14.80;99.90
17988;DHT22;9119;50.932;5.342;2022-09-21T19:05:36;14.80;99.90
17988;DHT22;9119;50.932;5.342;2022-09-21T19:11:06;14.80;99.90
17988;DHT22;9119;50.932;5.342;2022-09-21T19:16:32;14.70;99.90
17988;DHT22;9119;50.932;5.342;2022-09-21T19:19:30;14.60;99.90
17988;DHT22;9119;50.932;5.342;2022-09-21T19:25:11;14.40;99.90
17988;DHT22;9119;50.932;5.342;2022-09-21T19:30:36;14.30;99.90
17988;DHT22;9119;50.932;5.342;2022-09-21T19:33:20;14.30;99.90
17988;DHT22;9119;50.932;5.342;2022-09-21T19:35:47;14.30;99.90
17988;DHT22;9119;50.932;5.342;2022-09-21T19:38:13;14.30;99.90
17988;DHT22;9119;50.932;5.342;2022-09-21T19:40:38;14.30;99.90
17988;DHT22;9119;50.932;5.342;2022-09-21T19:45:45;14.30;99.90
17988;DHT22;9119;50.932;5.342;2022-09-21T19:48:15;14.20;99.90
17988;DHT22;9119;50.932;5.342;2022-09-21T19:50:52;14.20;99.90
17988;DHT22;9119;50.932;5.342;2022-09-21T19:53:26;14.20;99.90
17988;DHT22;9119;50.932;5.342;2022-09-21T19:56:13;14.20;99.90
17988;DHT22;9119;50.932;5.342;2022-09-21T19:58:59;14.10;99.90
17988;DHT22;9119;50.932;5.342;2022-09-21T20:01:56;14.10;99.90
17988;DHT22;9119;50.932;5.342;2022-09-21T20:07:08;14.00;99.90
17988;DHT22;9119;50.932;5.342;2022-09-21T20:09:40;14.00;99.90
17988;DHT22;9119;50.932;5.342;2022-09-21T20:12:21;14.00;99.90
17988;DHT22;9119;50.932;5.342;2022-09-21T20:15:13;13.90;99.90
17988;DHT22;9119;50.932;5.342;2022-09-21T20:17:52;13.90;99.90
17988;DHT22;9119;50.932;5.342;2022-09-21T20:20:22;13.80;99.90